Time,TemperatureF,DewpointF,PressureIn,WindDirection,WindDirectionDegrees,WindSpeedMPH,WindSpeedGustMPH,Humidity,HourlyPrecipIn,Conditions,Clouds,dailyrainin,SoftwareType,DateUTC
2010-01-01 00:00:00,30.6,29.3,29.99,ESE,107,0.0,0.0,95,0.00,,---,0.16,VWS V14.00,2010-01-01 05:00:00,
2010-01-01 00:05:00,30.6,29.3,29.99,ESE,107,0.0,0.0,95,0.00,,---,0.00,VWS V14.00,2010-01-01 05:05:00,
2010-01-01 00:10:00,30.6,29.3,29.99,ESE,107,0.0,0.0,95,0.00,,---,0.00,VWS V14.00,2010-01-01 05:10:00,
2010-01-01 00:15:00,30.6,29.3,29.99,ESE,107,0.0,0.0,95,0.00,,---,0.00,VWS V14.00,2010-01-01 05:15:00,
2010-01-01 00:20:00,30.5,29.2,29.99,ESE,106,0.0,0.0,95,0.00,,---,0.00,VWS V14.00,2010-01-01 05:20:00,
2010-01-01 00:25:00,30.6,29.3,29.99,ESE,107,0.0,0.0,95,0.00,,---,0.00,VWS V14.00,2010-01-01 05:25:00,
2010-01-01 00:30:00,30.6,29.3,29.99,ESE,106,0.0,0.0,95,0.00,,---,0.00,VWS V14.00,2010-01-01 05:30:00,
2010-01-01 00:35:00,30.6,29.3,29.98,ESE,106,0.0,0.0,95,0.00,,---,0.00,VWS V14.00,2010-01-01 05:35:00,
2010-01-01 00:40:00,30.6,29.3,29.98,ESE,106,0.0,0.0,95,0.00,,---,0.00,VWS V14.00,2010-01-01 05:40:00,
2010-01-01 00:45:00,30.6,29.3,29.98,ESE,107,0.0,0.0,95,0.00,,---,0.00,VWS V14.00,2010-01-01 05:45:00,
2010-01-01 00:50:00,30.6,29.3,29.98,ESE,107,0.0,0.0,95,0.00,,---,0.00,VWS V14.00,2010-01-01 05:50:00,
2010-01-01 00:55:00,30.6,29.3,29.98,ESE,107,0.0,0.0,95,0.00,,---,0.00,VWS V14.00,2010-01-01 05:55:00,
2010-01-01 01:00:00,30.6,29.6,29.98,ESE,106,0.0,0.0,96,0.00,,---,0.00,VWS V14.00,2010-01-01 06:00:00,
2010-01-01 01:05:00,30.6,29.6,29.98,ESE,106,0.0,0.0,96,0.00,,---,0.00,VWS V14.00,2010-01-01 06:05:00,
2010-01-01 01:10:00,30.6,29.6,29.97,ESE,106,0.0,0.0,96,0.00,,---,0.00,VWS V14.00,2010-01-01 06:10:00,
2010-01-01 01:15:00,30.6,29.6,29.97,ESE,107,0.0,0.0,96,0.00,,---,0.00,VWS V14.00,2010-01-01 06:15:00,
2010-01-01 01:20:00,30.5,29.5,29.97,ESE,107,0.0,0.0,96,0.00,,---,0.00,VWS V14.00,2010-01-01 06:20:00,
2010-01-01 01:25:00,30.5,29.5,29.97,ESE,107,0.0,0.0,96,0.00,,---,0.00,VWS V14.00,2010-01-01 06:25:00,
2010-01-01 01:30:00,30.5,29.5,29.97,ESE,107,0.0,0.0,96,0.00,,---,0.00,VWS V14.00,2010-01-01 06:30:00,
2010-01-01 01:35:00,30.5,29.5,29.97,ESE,106,0.0,0.0,96,0.00,,---,0.00,VWS V14.00,2010-01-01 06:35:00,
2010-01-01 01:40:00,30.5,29.5,29.97,ESE,106,0.0,0.0,96,0.00,,---,0.00,VWS V14.00,2010-01-01 06:40:00,
2010-01-01 01:45:00,30.6,29.6,29.98,ESE,107,0.0,0.0,96,0.00,,---,0.00,VWS V14.00,2010-01-01 06:45:00,
2010-01-01 01:50:00,30.6,29.6,29.98,ESE,107,0.0,0.0,96,0.00,,---,0.00,VWS V14.00,2010-01-01 06:50:00,
2010-01-01 01:55:00,30.6,29.6,29.97,ESE,107,0.0,0.0,96,0.00,,---,0.00,VWS V14.00,2010-01-01 06:55:00,
2010-01-01 02:00:00,30.6,29.6,29.97,ESE,107,0.0,0.0,96,0.00,,---,0.00,VWS V14.00,2010-01-01 07:00:00,
2010-01-01 02:05:00,30.7,29.7,29.97,ESE,107,0.0,0.0,96,0.00,,---,0.00,VWS V14.00,2010-01-01 07:05:00,
2010-01-01 02:10:00,30.7,29.7,29.97,ESE,106,0.0,0.0,96,0.00,,---,0.00,VWS V14.00,2010-01-01 07:10:00,
2010-01-01 02:15:00,30.7,29.7,29.98,ESE,107,0.0,0.0,96,0.00,,---,0.00,VWS V14.00,2010-01-01 07:15:00,
2010-01-01 02:20:00,30.7,29.7,29.98,ESE,107,0.0,0.0,96,0.00,,---,0.00,VWS V14.00,2010-01-01 07:20:00,
2010-01-01 02:25:00,30.7,29.7,29.98,ESE,107,0.0,1.0,96,0.00,,---,0.00,VWS V14.00,2010-01-01 07:25:00,
2010-01-01 02:30:00,30.7,29.7,29.98,ESE,106,0.0,1.0,96,0.00,,---,0.00,VWS V14.00,2010-01-01 07:30:00,
2010-01-01 02:35:00,30.8,29.8,29.98,ESE,106,0.0,0.0,96,0.00,,---,0.00,VWS V14.00,2010-01-01 07:35:00,
2010-01-01 02:40:00,30.8,29.8,29.98,ESE,107,0.0,0.0,96,0.00,,---,0.00,VWS V14.00,2010-01-01 07:40:00,
2010-01-01 02:45:00,30.8,29.8,29.98,ESE,107,0.0,0.0,96,0.00,,---,0.00,VWS V14.00,2010-01-01 07:45:00,
2010-01-01 02:50:00,30.8,29.8,29.98,ESE,106,0.0,0.0,96,0.00,,---,0.00,VWS V14.00,2010-01-01 07:50:00,
2010-01-01 02:55:00,30.8,29.8,29.97,ESE,107,0.0,0.0,96,0.00,,---,0.00,VWS V14.00,2010-01-01 07:55:00,
2010-01-01 03:00:00,30.7,29.7,29.97,ESE,107,0.0,0.0,96,0.00,,---,0.00,VWS V14.00,2010-01-01 08:00:00,
2010-01-01 03:05:00,30.7,29.7,29.97,ESE,107,0.0,0.0,96,0.00,,---,0.00,VWS V14.00,2010-01-01 08:05:00,
2010-01-01 03:10:00,30.7,29.7,29.97,ESE,106,0.0,0.0,96,0.00,,---,0.00,VWS V14.00,2010-01-01 08:10:00,
2010-01-01 03:15:00,30.7,29.7,29.97,ESE,113,0.0,1.0,96,0.00,,---,0.00,VWS V14.00,2010-01-01 08:15:00,
2010-01-01 03:20:00,30.7,29.7,29.97,ESE,113,0.0,1.0,96,0.00,,---,0.00,VWS V14.00,2010-01-01 08:20:00,
2010-01-01 03:25:00,30.7,29.7,29.96,ESE,117,0.0,1.0,96,0.00,,---,0.00,VWS V14.00,2010-01-01 08:25:00,
2010-01-01 03:30:00,30.6,29.6,29.96,ESE,119,0.0,1.0,96,0.00,,---,0.00,VWS V14.00,2010-01-01 08:30:00,
2010-01-01 03:35:00,30.6,29.6,29.96,ESE,120,0.0,0.0,96,0.00,,---,0.00,VWS V14.00,2010-01-01 08:35:00,
2010-01-01 03:40:00,30.6,29.6,29.97,ESE,120,0.0,0.0,96,0.00,,---,0.00,VWS V14.00,2010-01-01 08:40:00,
2010-01-01 03:45:00,30.6,29.6,29.97,ESE,120,0.0,0.0,96,0.00,,---,0.00,VWS V14.00,2010-01-01 08:45:00,
2010-01-01 03:50:00,30.6,29.6,29.96,ESE,119,0.0,0.0,96,0.00,,---,0.00,VWS V14.00,2010-01-01 08:50:00,
2010-01-01 03:55:00,30.6,29.6,29.96,South,182,0.0,1.0,96,0.00,,---,0.00,VWS V14.00,2010-01-01 08:55:00,
2010-01-01 04:00:00,30.6,29.6,29.95,SSW,203,0.0,2.0,96,0.00,,---,0.00,VWS V14.00,2010-01-01 09:00:00,
2010-01-01 04:05:00,30.5,29.5,29.95,SSW,203,0.0,0.0,96,0.00,,---,0.00,VWS V14.00,2010-01-01 09:05:00,
2010-01-01 04:10:00,30.5,29.5,29.95,SSW,203,0.0,0.0,96,0.00,,---,0.00,VWS V14.00,2010-01-01 09:10:00,
2010-01-01 04:15:00,30.5,29.5,29.95,SSW,203,0.0,0.0,96,0.00,,---,0.00,VWS V14.00,2010-01-01 09:15:00,
2010-01-01 04:20:00,30.5,29.5,29.95,SSW,203,0.0,1.0,96,0.00,,---,0.00,VWS V14.00,2010-01-01 09:20:00,
2010-01-01 04:25:00,30.5,29.5,29.95,SSW,203,0.0,1.0,96,0.00,,---,0.00,VWS V14.00,2010-01-01 09:25:00,
2010-01-01 04:30:00,30.5,29.5,29.95,SSW,203,0.0,1.0,96,0.00,,---,0.00,VWS V14.00,2010-01-01 09:30:00,
2010-01-01 04:35:00,30.5,29.5,29.95,SSW,203,0.0,1.0,96,0.00,,---,0.00,VWS V14.00,2010-01-01 09:35:00,
2010-01-01 04:40:00,30.5,29.5,29.95,SSW,203,0.0,1.0,96,0.00,,---,0.00,VWS V14.00,2010-01-01 09:40:00,
2010-01-01 04:45:00,30.5,29.5,29.95,SSW,203,0.0,1.0,96,0.00,,---,0.00,VWS V14.00,2010-01-01 09:45:00,
2010-01-01 04:50:00,30.5,29.5,29.94,SSW,203,0.0,0.0,96,0.00,,---,0.00,VWS V14.00,2010-01-01 09:50:00,
2010-01-01 04:55:00,30.5,29.5,29.94,SSW,203,0.0,0.0,96,0.00,,---,0.00,VWS V14.00,2010-01-01 09:55:00,
2010-01-01 05:00:00,30.5,29.5,29.94,SSW,203,0.0,0.0,96,0.00,,---,0.00,VWS V14.00,2010-01-01 10:00:00,
2010-01-01 05:05:00,30.5,29.5,29.94,SSW,203,0.0,0.0,96,0.00,,---,0.00,VWS V14.00,2010-01-01 10:05:00,
2010-01-01 05:10:00,30.4,29.4,29.94,SSW,203,0.0,0.0,96,0.00,,---,0.00,VWS V14.00,2010-01-01 10:10:00,
2010-01-01 05:15:00,30.3,29.3,29.93,SSW,203,0.0,0.0,96,0.00,,---,0.00,VWS V14.00,2010-01-01 10:15:00,
2010-01-01 05:20:00,30.3,29.3,29.94,SSW,203,0.0,0.0,96,0.00,,---,0.00,VWS V14.00,2010-01-01 10:20:00,
2010-01-01 05:25:00,30.3,29.3,29.93,SSW,203,0.0,0.0,96,0.00,,---,0.00,VWS V14.00,2010-01-01 10:25:00,
2010-01-01 05:30:00,30.3,29.3,29.93,SSW,203,0.0,0.0,96,0.00,,---,0.00,VWS V14.00,2010-01-01 10:30:00,
2010-01-01 05:35:00,30.2,29.2,29.94,SSW,203,0.0,0.0,96,0.00,,---,0.00,VWS V14.00,2010-01-01 10:35:00,
2010-01-01 05:40:00,30.2,29.2,29.94,SSW,203,0.0,0.0,96,0.00,,---,0.00,VWS V14.00,2010-01-01 10:40:00,
2010-01-01 05:45:00,30.2,29.2,29.94,SSW,203,0.0,0.0,96,0.00,,---,0.00,VWS V14.00,2010-01-01 10:45:00,
2010-01-01 05:50:00,30.1,29.1,29.94,SSW,203,0.0,0.0,96,0.00,,---,0.00,VWS V14.00,2010-01-01 10:50:00,
2010-01-01 05:55:00,30.1,29.1,29.94,SSW,203,0.0,0.0,96,0.00,,---,0.00,VWS V14.00,2010-01-01 10:55:00,
2010-01-01 06:00:00,30.0,29.0,29.94,SSW,203,0.0,0.0,96,0.00,,---,0.00,VWS V14.00,2010-01-01 11:00:00,
2010-01-01 06:05:00,29.9,28.9,29.94,SSW,203,0.0,0.0,96,0.00,,---,0.00,VWS V14.00,2010-01-01 11:05:00,
2010-01-01 06:10:00,29.8,28.8,29.94,SSW,203,0.0,0.0,96,0.00,,---,0.00,VWS V14.00,2010-01-01 11:10:00,
2010-01-01 06:15:00,29.6,28.6,29.94,SSW,203,0.0,0.0,96,0.00,,---,0.00,VWS V14.00,2010-01-01 11:15:00,
2010-01-01 06:20:00,29.6,28.6,29.94,SSW,203,0.0,0.0,96,0.00,,---,0.00,VWS V14.00,2010-01-01 11:20:00,
2010-01-01 06:25:00,29.6,28.6,29.94,SSW,203,0.0,0.0,96,0.00,,---,0.00,VWS V14.00,2010-01-01 11:25:00,
2010-01-01 06:30:00,29.6,28.6,29.94,SSW,203,0.0,1.0,96,0.00,,---,0.00,VWS V14.00,2010-01-01 11:30:00,
2010-01-01 06:35:00,29.6,28.9,29.94,SSW,203,0.0,1.0,97,0.00,,---,0.00,VWS V14.00,2010-01-01 11:35:00,
2010-01-01 06:40:00,29.6,28.9,29.94,SSW,203,0.0,1.0,97,0.00,,---,0.00,VWS V14.00,2010-01-01 11:40:00,
2010-01-01 06:45:00,29.7,29.0,29.94,SSW,203,0.0,1.0,97,0.00,,---,0.00,VWS V14.00,2010-01-01 11:45:00,
2010-01-01 06:50:00,29.7,29.0,29.94,SSW,203,0.0,0.0,97,0.00,,---,0.00,VWS V14.00,2010-01-01 11:50:00,
2010-01-01 06:55:00,29.7,29.0,29.94,SSW,203,0.0,0.0,97,0.00,,---,0.00,VWS V14.00,2010-01-01 11:55:00,
2010-01-01 07:00:00,29.7,29.0,29.94,SSW,203,0.0,0.0,97,0.00,,---,0.00,VWS V14.00,2010-01-01 12:00:00,
2010-01-01 07:05:00,29.8,29.0,29.95,WSW,239,0.0,2.0,97,0.00,,---,0.00,VWS V14.00,2010-01-01 12:05:00,
2010-01-01 07:10:00,30.0,29.2,29.95,WSW,238,1.0,2.0,97,0.00,,---,0.00,VWS V14.00,2010-01-01 12:10:00,
2010-01-01 07:15:00,30.1,29.4,29.95,WSW,238,0.0,2.0,97,0.00,,---,0.00,VWS V14.00,2010-01-01 12:15:00,
2010-01-01 07:20:00,30.1,29.4,29.95,WSW,238,0.0,0.0,97,0.00,,---,0.00,VWS V14.00,2010-01-01 12:20:00,
2010-01-01 07:25:00,30.1,29.4,29.94,WSW,239,0.0,1.0,97,0.00,,---,0.00,VWS V14.00,2010-01-01 12:25:00,
2010-01-01 07:30:00,30.2,29.5,29.95,WSW,239,0.0,1.0,97,0.00,,---,0.00,VWS V14.00,2010-01-01 12:30:00,
2010-01-01 07:35:00,30.2,29.5,29.95,WSW,238,0.0,0.0,97,0.00,,---,0.00,VWS V14.00,2010-01-01 12:35:00,
2010-01-01 07:40:00,30.2,29.5,29.95,WSW,239,0.0,0.0,97,0.00,,---,0.00,VWS V14.00,2010-01-01 12:40:00,
2010-01-01 07:45:00,30.3,29.5,29.94,WSW,239,0.0,0.0,97,0.00,,---,0.00,VWS V14.00,2010-01-01 12:45:00,
2010-01-01 07:50:00,30.3,29.5,29.94,WSW,238,0.0,0.0,97,0.00,,---,0.00,VWS V14.00,2010-01-01 12:50:00,
2010-01-01 07:55:00,30.4,29.6,29.93,WSW,238,0.0,0.0,97,0.00,,---,0.00,VWS V14.00,2010-01-01 12:55:00,
2010-01-01 08:00:00,30.4,29.6,29.94,WSW,239,0.0,0.0,97,0.00,,---,0.00,VWS V14.00,2010-01-01 13:00:00,
2010-01-01 08:05:00,30.5,29.8,29.94,WSW,239,0.0,0.0,97,0.00,,---,0.00,VWS V14.00,2010-01-01 13:05:00,
2010-01-01 08:10:00,30.5,29.8,29.94,WSW,239,0.0,0.0,97,0.00,,---,0.00,VWS V14.00,2010-01-01 13:10:00,
2010-01-01 08:15:00,30.6,29.9,29.94,WSW,238,0.0,0.0,97,0.00,,---,0.00,VWS V14.00,2010-01-01 13:15:00,
2010-01-01 08:20:00,30.7,30.0,29.93,WSW,239,0.0,1.0,97,0.00,,---,0.00,VWS V14.00,2010-01-01 13:20:00,
2010-01-01 08:25:00,30.8,30.0,29.93,WSW,239,0.0,1.0,97,0.00,,---,0.00,VWS V14.00,2010-01-01 13:25:00,
2010-01-01 08:30:00,30.9,30.4,29.93,WSW,239,0.0,2.0,98,0.00,,---,0.00,VWS V14.00,2010-01-01 13:30:00,
2010-01-01 08:35:00,31.0,30.5,29.93,WSW,239,0.0,2.0,98,0.00,,---,0.00,VWS V14.00,2010-01-01 13:35:00,
2010-01-01 08:40:00,31.1,30.4,29.93,WSW,238,0.0,2.0,97,0.00,,---,0.00,VWS V14.00,2010-01-01 13:40:00,
2010-01-01 08:45:00,31.3,30.8,29.93,WSW,239,0.0,2.0,98,0.00,,---,0.00,VWS V14.00,2010-01-01 13:45:00,
2010-01-01 08:50:00,31.4,30.6,29.93,WSW,239,0.0,0.0,97,0.00,,---,0.00,VWS V14.00,2010-01-01 13:50:00,
2010-01-01 08:55:00,31.5,30.8,29.93,WSW,239,0.0,1.0,97,0.00,,---,0.00,VWS V14.00,2010-01-01 13:55:00,
2010-01-01 09:00:00,31.7,31.0,29.94,WSW,244,0.0,3.0,97,0.00,,---,0.00,VWS V14.00,2010-01-01 14:00:00,
2010-01-01 09:05:00,31.7,31.0,29.93,WSW,244,0.0,1.0,97,0.00,,---,0.00,VWS V14.00,2010-01-01 14:05:00,
2010-01-01 09:10:00,31.8,31.0,29.93,WSW,244,0.0,1.0,97,0.00,,---,0.00,VWS V14.00,2010-01-01 14:10:00,
2010-01-01 09:15:00,32.0,31.2,29.93,WSW,249,0.0,2.0,97,0.00,,---,0.00,VWS V14.00,2010-01-01 14:15:00,
2010-01-01 09:20:00,32.1,31.1,29.93,WSW,248,0.0,1.0,96,0.00,,---,0.00,VWS V14.00,2010-01-01 14:20:00,
2010-01-01 09:25:00,32.3,31.3,29.93,WSW,248,0.0,1.0,96,0.00,,---,0.00,VWS V14.00,2010-01-01 14:25:00,
2010-01-01 09:30:00,32.5,31.5,29.93,WSW,248,0.0,1.0,96,0.00,,---,0.00,VWS V14.00,2010-01-01 14:30:00,
2010-01-01 09:35:00,32.8,31.8,29.93,WSW,248,0.0,1.0,96,0.00,,---,0.00,VWS V14.00,2010-01-01 14:35:00,
2010-01-01 09:40:00,32.9,31.9,29.92,WSW,248,0.0,1.0,96,0.00,,---,0.00,VWS V14.00,2010-01-01 14:40:00,
2010-01-01 09:45:00,33.1,31.8,29.93,WSW,238,0.0,3.0,95,0.00,,---,0.00,VWS V14.00,2010-01-01 14:45:00,
2010-01-01 09:50:00,33.3,32.0,29.93,WSW,238,0.0,1.0,95,0.00,,---,0.00,VWS V14.00,2010-01-01 14:50:00,
2010-01-01 09:55:00,33.5,32.2,29.93,WSW,238,2.0,2.0,95,0.00,,---,0.00,VWS V14.00,2010-01-01 14:55:00,
2010-01-01 10:00:00,33.8,32.5,29.93,WNW,284,0.0,3.0,95,0.00,,---,0.00,VWS V14.00,2010-01-01 15:00:00,
2010-01-01 10:05:00,34.0,32.5,29.93,West,279,1.0,2.0,94,0.00,,---,0.00,VWS V14.00,2010-01-01 15:05:00,
2010-01-01 10:10:00,34.2,32.4,29.93,SSW,200,0.0,2.0,93,0.00,,---,0.00,VWS V14.00,2010-01-01 15:10:00,
2010-01-01 10:15:00,34.4,32.6,29.93,WSW,243,0.0,2.0,93,0.00,,---,0.00,VWS V14.00,2010-01-01 15:15:00,
2010-01-01 10:20:00,34.4,32.6,29.93,WSW,243,0.0,1.0,93,0.01,,---,0.01,VWS V14.00,2010-01-01 15:20:00,
2010-01-01 10:25:00,34.5,32.4,29.93,WNW,283,0.0,3.0,92,0.01,,---,0.01,VWS V14.00,2010-01-01 15:25:00,
2010-01-01 10:30:00,34.6,32.5,29.93,WSW,246,2.0,3.0,92,0.02,,---,0.02,VWS V14.00,2010-01-01 15:30:00,
2010-01-01 10:35:00,34.8,32.7,29.92,WSW,246,0.0,0.0,92,0.02,,---,0.02,VWS V14.00,2010-01-01 15:35:00,
2010-01-01 10:40:00,35.1,33.0,29.92,WNW,299,1.0,2.0,92,0.03,,---,0.03,VWS V14.00,2010-01-01 15:40:00,
2010-01-01 10:45:00,35.2,32.8,29.92,WNW,288,0.0,4.0,91,0.03,,---,0.03,VWS V14.00,2010-01-01 15:45:00,
2010-01-01 10:50:00,35.4,32.8,29.92,West,271,3.0,3.0,90,0.04,,---,0.04,VWS V14.00,2010-01-01 15:50:00,
2010-01-01 10:55:00,35.5,32.9,29.92,WNW,282,0.0,4.0,90,0.04,,---,0.04,VWS V14.00,2010-01-01 15:55:00,
2010-01-01 11:00:00,35.7,33.1,29.92,West,268,0.0,4.0,90,0.05,,---,0.05,VWS V14.00,2010-01-01 16:00:00,
2010-01-01 11:05:00,36.0,33.4,29.92,WNW,288,0.0,3.0,90,0.05,,---,0.05,VWS V14.00,2010-01-01 16:05:00,
2010-01-01 11:10:00,36.2,33.3,29.92,West,277,0.0,3.0,89,0.06,,---,0.06,VWS V14.00,2010-01-01 16:10:00,
2010-01-01 11:15:00,36.3,33.1,29.91,West,277,3.0,5.0,88,0.06,,---,0.06,VWS V14.00,2010-01-01 16:15:00,
2010-01-01 11:20:00,36.3,33.1,29.91,WNW,298,0.0,1.0,88,0.06,,---,0.07,VWS V14.00,2010-01-01 16:20:00,
2010-01-01 11:25:00,36.5,33.3,29.91,WSW,245,1.0,2.0,88,0.06,,---,0.07,VWS V14.00,2010-01-01 16:25:00,
2010-01-01 11:30:00,36.7,33.5,29.91,WSW,250,0.0,2.0,88,0.06,,---,0.07,VWS V14.00,2010-01-01 16:30:00,
2010-01-01 11:35:00,36.9,33.4,29.90,WSW,250,0.0,2.0,87,0.06,,---,0.08,VWS V14.00,2010-01-01 16:35:00,
2010-01-01 11:40:00,36.9,33.4,29.90,West,275,0.0,3.0,87,0.06,,---,0.08,VWS V14.00,2010-01-01 16:40:00,
2010-01-01 11:45:00,37.1,33.6,29.89,West,275,0.0,3.0,87,0.06,,---,0.08,VWS V14.00,2010-01-01 16:45:00,
2010-01-01 11:50:00,37.3,33.8,29.89,West,269,0.0,2.0,87,0.06,,---,0.09,VWS V14.00,2010-01-01 16:50:00,
2010-01-01 11:55:00,37.4,33.6,29.88,West,266,0.0,4.0,86,0.06,,---,0.09,VWS V14.00,2010-01-01 16:55:00,
2010-01-01 12:00:00,37.7,33.9,29.88,WSW,244,0.0,4.0,86,0.07,,---,0.10,VWS V14.00,2010-01-01 17:00:00,
2010-01-01 12:05:00,37.9,34.1,29.88,WSW,257,0.0,2.0,86,0.05,,---,0.10,VWS V14.00,2010-01-01 17:05:00,
2010-01-01 12:10:00,38.2,34.1,29.88,WNW,303,0.0,3.0,85,0.06,,---,0.11,VWS V14.00,2010-01-01 17:10:00,
2010-01-01 12:15:00,38.3,34.2,29.88,WNW,297,0.0,3.0,85,0.06,,---,0.11,VWS V14.00,2010-01-01 17:15:00,
2010-01-01 12:20:00,38.5,34.4,29.87,West,267,1.0,4.0,85,0.06,,---,0.12,VWS V14.00,2010-01-01 17:20:00,
2010-01-01 12:25:00,38.6,34.2,29.87,West,264,1.0,4.0,84,0.06,,---,0.12,VWS V14.00,2010-01-01 17:25:00,
2010-01-01 12:30:00,38.6,34.2,29.87,West,265,2.0,4.0,84,0.07,,---,0.13,VWS V14.00,2010-01-01 17:30:00,
2010-01-01 12:35:00,38.5,34.1,29.86,West,275,1.0,4.0,84,0.06,,---,0.13,VWS V14.00,2010-01-01 17:35:00,
2010-01-01 12:40:00,38.4,34.3,29.86,West,273,0.0,4.0,85,0.07,,---,0.14,VWS V14.00,2010-01-01 17:40:00,
2010-01-01 12:45:00,38.6,34.5,29.86,West,281,1.0,4.0,85,0.07,,---,0.14,VWS V14.00,2010-01-01 17:45:00,
2010-01-01 12:50:00,38.8,34.7,29.86,West,281,0.0,2.0,85,0.06,,---,0.15,VWS V14.00,2010-01-01 17:50:00,
2010-01-01 12:55:00,39.0,34.6,29.86,West,273,0.0,4.0,84,0.06,,---,0.15,VWS V14.00,2010-01-01 17:55:00,
2010-01-01 13:00:00,39.1,34.7,29.86,West,267,0.0,4.0,84,0.07,,---,0.16,VWS V14.00,2010-01-01 18:00:00,
2010-01-01 13:05:00,39.4,35.0,29.86,West,265,0.0,2.0,84,0.06,,---,0.16,VWS V14.00,2010-01-01 18:05:00,
2010-01-01 13:10:00,39.8,35.1,29.85,WSW,241,1.0,3.0,83,0.07,,---,0.17,VWS V14.00,2010-01-01 18:10:00,
2010-01-01 13:15:00,40.1,35.1,29.85,West,279,0.0,3.0,82,0.07,,---,0.17,VWS V14.00,2010-01-01 18:15:00,
2010-01-01 13:20:00,40.4,34.7,29.85,West,259,1.0,5.0,80,0.07,,---,0.18,VWS V14.00,2010-01-01 18:20:00,
2010-01-01 13:25:00,40.4,35.0,29.85,WNW,285,0.0,5.0,81,0.07,,---,0.18,VWS V14.00,2010-01-01 18:25:00,
2010-01-01 13:30:00,40.5,35.1,29.85,West,270,0.0,5.0,81,0.08,,---,0.19,VWS V14.00,2010-01-01 18:30:00,
2010-01-01 13:35:00,40.4,34.7,29.85,WSW,252,1.0,5.0,80,0.06,,---,0.19,VWS V14.00,2010-01-01 18:35:00,
2010-01-01 13:40:00,40.1,34.4,29.85,WNW,285,0.0,5.0,80,0.07,,---,0.20,VWS V14.00,2010-01-01 18:40:00,
2010-01-01 13:45:00,40.3,35.2,29.85,West,265,0.0,5.0,82,0.07,,---,0.20,VWS V14.00,2010-01-01 18:45:00,
2010-01-01 13:50:00,40.6,34.9,29.85,West,270,0.0,3.0,80,0.07,,---,0.21,VWS V14.00,2010-01-01 18:50:00,
2010-01-01 13:55:00,40.9,35.2,29.85,West,279,0.0,3.0,80,0.07,,---,0.21,VWS V14.00,2010-01-01 18:55:00,
2010-01-01 14:00:00,41.2,34.9,29.84,WNW,290,5.0,5.0,78,0.07,,---,0.21,VWS V14.00,2010-01-01 19:00:00,
2010-01-01 14:05:00,41.2,34.9,29.84,NW,307,0.0,5.0,78,0.06,,---,0.22,VWS V14.00,2010-01-01 19:05:00,
2010-01-01 14:10:00,41.5,34.8,29.84,WSW,238,0.0,5.0,77,0.06,,---,0.22,VWS V14.00,2010-01-01 19:10:00,
2010-01-01 14:15:00,41.9,34.9,29.84,WNW,283,0.0,5.0,76,0.07,,---,0.23,VWS V14.00,2010-01-01 19:15:00,
2010-01-01 14:20:00,42.2,34.5,29.84,WNW,291,3.0,5.0,74,0.06,,---,0.23,VWS V14.00,2010-01-01 19:20:00,
2010-01-01 14:25:00,42.4,34.0,29.84,NW,307,0.0,5.0,72,0.07,,---,0.24,VWS V14.00,2010-01-01 19:25:00,
2010-01-01 14:30:00,42.6,33.9,29.84,NNW,335,0.0,5.0,71,0.07,,---,0.24,VWS V14.00,2010-01-01 19:30:00,
2010-01-01 14:35:00,42.6,33.5,29.84,WSW,258,4.0,5.0,70,0.06,,---,0.25,VWS V14.00,2010-01-01 19:35:00,
2010-01-01 14:40:00,42.4,33.0,29.85,WNW,288,1.0,5.0,69,0.06,,---,0.25,VWS V14.00,2010-01-01 19:40:00,
2010-01-01 14:45:00,42.0,32.6,29.85,NW,311,0.0,5.0,69,0.06,,---,0.25,VWS V14.00,2010-01-01 19:45:00,
2010-01-01 14:50:00,41.5,32.5,29.85,West,276,1.0,5.0,70,0.06,,---,0.26,VWS V14.00,2010-01-01 19:50:00,
2010-01-01 14:55:00,41.2,32.5,29.85,NNW,328,5.0,5.0,71,0.06,,---,0.26,VWS V14.00,2010-01-01 19:55:00,
2010-01-01 15:00:00,41.0,32.3,29.85,WSW,244,2.0,6.0,71,0.06,,---,0.26,VWS V14.00,2010-01-01 20:00:00,
2010-01-01 15:05:00,40.7,31.7,29.85,North,355,3.0,4.0,70,0.05,,---,0.26,VWS V14.00,2010-01-01 20:05:00,
2010-01-01 15:10:00,40.4,31.8,29.85,NW,313,1.0,6.0,71,0.06,,---,0.27,VWS V14.00,2010-01-01 20:10:00,
2010-01-01 15:15:00,40.2,31.6,29.85,WNW,303,0.0,6.0,71,0.06,,---,0.27,VWS V14.00,2010-01-01 20:15:00,
2010-01-01 15:20:00,40.0,31.7,29.85,NW,317,1.0,4.0,72,0.04,,---,0.27,VWS V14.00,2010-01-01 20:20:00,
2010-01-01 15:25:00,39.8,32.2,29.85,WNW,294,1.0,4.0,74,0.04,,---,0.27,VWS V14.00,2010-01-01 20:25:00,
2010-01-01 15:30:00,39.5,31.9,29.85,NW,311,1.0,4.0,74,0.04,,---,0.27,VWS V14.00,2010-01-01 20:30:00,
2010-01-01 15:35:00,39.2,31.6,29.85,NNW,329,0.0,4.0,74,0.03,,---,0.27,VWS V14.00,2010-01-01 20:35:00,
2010-01-01 15:40:00,39.0,31.8,29.85,WNW,297,0.0,4.0,75,0.03,,---,0.27,VWS V14.00,2010-01-01 20:40:00,
2010-01-01 15:45:00,38.8,31.6,29.85,NW,309,1.0,5.0,75,0.03,,---,0.27,VWS V14.00,2010-01-01 20:45:00,
2010-01-01 15:50:00,38.7,31.8,29.85,NW,316,0.0,3.0,76,0.01,,---,0.27,VWS V14.00,2010-01-01 20:50:00,
2010-01-01 15:55:00,38.5,31.6,29.84,WNW,302,3.0,5.0,76,0.01,,---,0.27,VWS V14.00,2010-01-01 20:55:00,
2010-01-01 16:00:00,38.4,31.5,29.84,NNW,330,0.0,5.0,76,0.02,,---,0.28,VWS V14.00,2010-01-01 21:00:00,
2010-01-01 16:05:00,38.3,31.4,29.85,WNW,298,1.0,2.0,76,0.02,,---,0.28,VWS V14.00,2010-01-01 21:05:00,
2010-01-01 16:10:00,38.2,31.3,29.84,NW,321,0.0,3.0,76,0.02,,---,0.28,VWS V14.00,2010-01-01 21:10:00,
2010-01-01 16:15:00,38.0,30.8,29.84,WNW,300,0.0,3.0,75,0.02,,---,0.28,VWS V14.00,2010-01-01 21:15:00,
2010-01-01 16:20:00,37.9,30.7,29.84,WNW,294,1.0,6.0,75,0.01,,---,0.28,VWS V14.00,2010-01-01 21:20:00,
2010-01-01 16:25:00,37.8,30.6,29.84,WNW,290,0.0,6.0,75,0.01,,---,0.28,VWS V14.00,2010-01-01 21:25:00,
2010-01-01 16:30:00,37.7,30.5,29.84,WNW,299,1.0,6.0,75,0.01,,---,0.28,VWS V14.00,2010-01-01 21:30:00,
2010-01-01 16:35:00,37.6,30.4,29.84,WNW,303,0.0,2.0,75,0.01,,---,0.28,VWS V14.00,2010-01-01 21:35:00,
2010-01-01 16:40:00,37.4,30.5,29.84,WNW,300,0.0,2.0,76,0.01,,---,0.28,VWS V14.00,2010-01-01 21:40:00,
2010-01-01 16:45:00,37.2,30.4,29.84,WNW,300,0.0,2.0,76,0.01,,---,0.28,VWS V14.00,2010-01-01 21:45:00,
2010-01-01 16:50:00,37.1,30.6,29.84,WNW,300,0.0,2.0,77,0.01,,---,0.28,VWS V14.00,2010-01-01 21:50:00,
2010-01-01 16:55:00,37.0,30.8,29.84,NW,321,0.0,2.0,78,0.01,,---,0.28,VWS V14.00,2010-01-01 21:55:00,
2010-01-01 17:00:00,36.9,30.7,29.84,NW,325,0.0,2.0,78,0.01,,---,0.28,VWS V14.00,2010-01-01 22:00:00,
2010-01-01 17:05:00,36.7,30.5,29.84,NW,325,0.0,0.0,78,0.00,,---,0.28,VWS V14.00,2010-01-01 22:05:00,
2010-01-01 17:10:00,36.6,30.4,29.83,NW,325,0.0,0.0,78,0.00,,---,0.28,VWS V14.00,2010-01-01 22:10:00,
2010-01-01 17:15:00,36.4,30.5,29.83,NW,325,0.0,1.0,79,0.00,,---,0.28,VWS V14.00,2010-01-01 22:15:00,
2010-01-01 17:20:00,36.3,30.7,29.83,NW,325,0.0,0.0,80,0.00,,---,0.28,VWS V14.00,2010-01-01 22:20:00,
2010-01-01 17:25:00,36.1,30.5,29.84,NW,325,0.0,1.0,80,0.00,,---,0.28,VWS V14.00,2010-01-01 22:25:00,
2010-01-01 17:30:00,36.0,30.4,29.84,SW,229,0.0,1.0,80,0.00,,---,0.28,VWS V14.00,2010-01-01 22:30:00,
2010-01-01 17:35:00,35.9,30.0,29.83,WNW,291,0.0,2.0,79,0.00,,---,0.28,VWS V14.00,2010-01-01 22:35:00,
2010-01-01 17:40:00,35.9,30.0,29.84,West,264,1.0,2.0,79,0.00,,---,0.28,VWS V14.00,2010-01-01 22:40:00,
2010-01-01 17:45:00,35.9,29.7,29.84,NW,304,0.0,3.0,78,0.00,,---,0.28,VWS V14.00,2010-01-01 22:45:00,
2010-01-01 17:50:00,35.9,30.0,29.83,West,273,1.0,1.0,79,0.00,,---,0.28,VWS V14.00,2010-01-01 22:50:00,
2010-01-01 17:55:00,35.8,29.9,29.84,West,273,0.0,1.0,79,0.00,,---,0.28,VWS V14.00,2010-01-01 22:55:00,
2010-01-01 18:00:00,35.7,29.8,29.83,West,272,0.0,1.0,79,0.00,,---,0.28,VWS V14.00,2010-01-01 23:00:00,
2010-01-01 18:05:00,35.6,29.4,29.84,West,272,0.0,2.0,78,0.00,,---,0.28,VWS V14.00,2010-01-01 23:05:00,
2010-01-01 18:10:00,35.5,29.3,29.84,West,272,0.0,2.0,78,0.00,,---,0.28,VWS V14.00,2010-01-01 23:10:00,
2010-01-01 18:15:00,35.3,29.1,29.83,West,272,0.0,2.0,78,0.00,,---,0.28,VWS V14.00,2010-01-01 23:15:00,
2010-01-01 18:20:00,35.2,28.7,29.83,West,269,0.0,1.0,77,0.00,,---,0.28,VWS V14.00,2010-01-01 23:20:00,
2010-01-01 18:25:00,35.0,28.2,29.83,WNW,288,0.0,3.0,76,0.00,,---,0.28,VWS V14.00,2010-01-01 23:25:00,
2010-01-01 18:30:00,35.0,28.2,29.83,WNW,288,0.0,3.0,76,0.00,,---,0.28,VWS V14.00,2010-01-01 23:30:00,
2010-01-01 18:35:00,35.0,27.9,29.83,West,280,0.0,3.0,75,0.00,,---,0.28,VWS V14.00,2010-01-01 23:35:00,
2010-01-01 18:40:00,35.0,27.9,29.83,WNW,282,0.0,3.0,75,0.00,,---,0.28,VWS V14.00,2010-01-01 23:40:00,
2010-01-01 18:45:00,35.0,28.2,29.83,West,281,0.0,3.0,76,0.00,,---,0.28,VWS V14.00,2010-01-01 23:45:00,
2010-01-01 18:50:00,34.8,28.0,29.83,WSW,244,1.0,2.0,76,0.00,,---,0.28,VWS V14.00,2010-01-01 23:50:00,
2010-01-01 18:55:00,34.7,27.9,29.83,WSW,244,0.0,2.0,76,0.00,,---,0.28,VWS V14.00,2010-01-01 23:55:00,
2010-01-01 19:00:00,34.5,27.7,29.83,WSW,244,0.0,2.0,76,0.00,,---,0.28,VWS V14.00,2010-01-02 00:00:00,
2010-01-01 19:05:00,34.4,27.6,29.83,WSW,244,0.0,0.0,76,0.00,,---,0.28,VWS V14.00,2010-01-02 00:05:00,
2010-01-01 19:10:00,34.4,27.6,29.83,WSW,244,0.0,1.0,76,0.00,,---,0.28,VWS V14.00,2010-01-02 00:10:00,
2010-01-01 19:15:00,34.4,27.6,29.83,WSW,244,0.0,1.0,76,0.00,,---,0.28,VWS V14.00,2010-01-02 00:15:00,
2010-01-01 19:20:00,34.2,27.4,29.82,WSW,244,0.0,0.0,76,0.00,,---,0.28,VWS V14.00,2010-01-02 00:20:00,
2010-01-01 19:25:00,34.1,27.3,29.82,WSW,244,0.0,1.0,76,0.00,,---,0.28,VWS V14.00,2010-01-02 00:25:00,
2010-01-01 19:30:00,34.0,27.2,29.82,NW,313,0.0,2.0,76,0.00,,---,0.28,VWS V14.00,2010-01-02 00:30:00,
2010-01-01 19:35:00,34.1,27.3,29.82,NW,313,0.0,1.0,76,0.00,,---,0.28,VWS V14.00,2010-01-02 00:35:00,
2010-01-01 19:40:00,34.0,27.2,29.82,NW,313,0.0,1.0,76,0.00,,---,0.28,VWS V14.00,2010-01-02 00:40:00,
2010-01-01 19:45:00,34.0,27.2,29.82,West,276,0.0,6.0,76,0.00,,---,0.28,VWS V14.00,2010-01-02 00:45:00,
2010-01-01 19:50:00,34.1,27.7,29.82,West,259,3.0,9.0,77,0.00,,---,0.28,VWS V14.00,2010-01-02 00:50:00,
2010-01-01 19:55:00,34.4,27.6,29.82,WSW,246,1.0,13.0,76,0.00,,---,0.28,VWS V14.00,2010-01-02 00:55:00,
2010-01-01 20:00:00,34.4,27.3,29.82,WNW,292,5.0,13.0,75,0.00,,---,0.28,VWS V14.00,2010-01-02 01:00:00,
2010-01-01 20:05:00,34.4,26.7,29.82,NW,308,2.0,10.0,73,0.00,,---,0.28,VWS V14.00,2010-01-02 01:05:00,
2010-01-01 20:10:00,34.4,26.7,29.82,West,265,4.0,10.0,73,0.00,,---,0.28,VWS V14.00,2010-01-02 01:10:00,
2010-01-01 20:15:00,34.2,25.8,29.82,WNW,286,2.0,11.0,71,0.00,,---,0.28,VWS V14.00,2010-01-02 01:15:00,
2010-01-01 20:20:00,34.1,25.7,29.82,West,267,2.0,9.0,71,0.00,,---,0.28,VWS V14.00,2010-01-02 01:20:00,
2010-01-01 20:25:00,33.9,25.5,29.81,West,261,0.0,9.0,71,0.00,,---,0.28,VWS V14.00,2010-01-02 01:25:00,
2010-01-01 20:30:00,33.7,25.0,29.82,WNW,296,0.0,9.0,70,0.00,,---,0.28,VWS V14.00,2010-01-02 01:30:00,
2010-01-01 20:35:00,33.6,24.9,29.82,WNW,289,0.0,5.0,70,0.00,,---,0.28,VWS V14.00,2010-01-02 01:35:00,
2010-01-01 20:40:00,33.5,24.8,29.82,NW,319,0.0,9.0,70,0.00,,---,0.28,VWS V14.00,2010-01-02 01:40:00,
2010-01-01 20:45:00,33.4,25.0,29.81,NW,304,1.0,9.0,71,0.00,,---,0.28,VWS V14.00,2010-01-02 01:45:00,
2010-01-01 20:50:00,33.3,24.9,29.81,West,266,0.0,6.0,71,0.00,,---,0.28,VWS V14.00,2010-01-02 01:50:00,
2010-01-01 20:55:00,33.2,25.2,29.81,WNW,288,2.0,6.0,72,0.00,,---,0.28,VWS V14.00,2010-01-02 01:55:00,
2010-01-01 21:00:00,33.1,25.1,29.81,WNW,296,5.0,6.0,72,0.00,,---,0.28,VWS V14.00,2010-01-02 02:00:00,
2010-01-01 21:05:00,33.1,25.4,29.81,NW,326,0.0,8.0,73,0.00,,---,0.28,VWS V14.00,2010-01-02 02:05:00,
2010-01-01 21:10:00,33.0,25.3,29.81,WNW,303,2.0,9.0,73,0.00,,---,0.28,VWS V14.00,2010-01-02 02:10:00,
2010-01-01 21:15:00,33.0,25.6,29.81,WNW,302,5.0,9.0,74,0.00,,---,0.28,VWS V14.00,2010-01-02 02:15:00,
2010-01-01 21:20:00,32.9,25.9,29.81,NW,315,3.0,12.0,75,0.00,,---,0.28,VWS V14.00,2010-01-02 02:20:00,
2010-01-01 21:25:00,32.7,26.0,29.81,WNW,300,2.0,12.0,76,0.00,,---,0.28,VWS V14.00,2010-01-02 02:25:00,
2010-01-01 21:30:00,32.6,26.2,29.81,WNW,299,0.0,12.0,77,0.00,,---,0.28,VWS V14.00,2010-01-02 02:30:00,
2010-01-01 21:35:00,32.4,26.3,29.81,NW,315,4.0,7.0,78,0.00,,---,0.28,VWS V14.00,2010-01-02 02:35:00,
2010-01-01 21:40:00,32.2,26.4,29.81,WNW,295,1.0,7.0,79,0.00,,---,0.28,VWS V14.00,2010-01-02 02:40:00,
2010-01-01 21:45:00,32.0,26.2,29.81,North,355,1.0,7.0,79,0.00,,---,0.28,VWS V14.00,2010-01-02 02:45:00,
2010-01-01 21:50:00,31.9,26.1,29.81,NW,316,2.0,5.0,79,0.00,,---,0.28,VWS V14.00,2010-01-02 02:50:00,
2010-01-01 21:55:00,31.7,25.9,29.81,WNW,290,6.0,6.0,79,0.00,,---,0.28,VWS V14.00,2010-01-02 02:55:00,
2010-01-01 22:00:00,31.6,26.1,29.81,NW,313,2.0,6.0,80,0.00,,---,0.28,VWS V14.00,2010-01-02 03:00:00,
2010-01-01 22:05:00,31.6,26.1,29.81,WNW,303,1.0,3.0,80,0.00,,---,0.28,VWS V14.00,2010-01-02 03:05:00,
2010-01-01 22:10:00,31.5,26.0,29.81,NW,304,2.0,6.0,80,0.00,,---,0.28,VWS V14.00,2010-01-02 03:10:00,
2010-01-01 22:15:00,31.5,26.0,29.81,WNW,291,3.0,6.0,80,0.00,,---,0.28,VWS V14.00,2010-01-02 03:15:00,
2010-01-01 22:20:00,31.6,25.9,29.81,NW,321,0.0,6.0,79,0.00,,---,0.28,VWS V14.00,2010-01-02 03:20:00,
2010-01-01 22:25:00,31.5,25.8,29.81,NW,321,0.0,6.0,79,0.00,,---,0.28,VWS V14.00,2010-01-02 03:25:00,
2010-01-01 22:30:00,31.6,25.9,29.80,NW,310,0.0,6.0,79,0.00,,---,0.28,VWS V14.00,2010-01-02 03:30:00,
2010-01-01 22:35:00,31.5,25.4,29.80,NNE,31,1.0,2.0,78,0.00,,---,0.28,VWS V14.00,2010-01-02 03:35:00,
2010-01-01 22:40:00,31.4,24.1,29.81,NW,313,1.0,5.0,74,0.00,,---,0.28,VWS V14.00,2010-01-02 03:40:00,
2010-01-01 22:45:00,31.5,23.9,29.80,NW,322,3.0,10.0,73,0.00,,---,0.28,VWS V14.00,2010-01-02 03:45:00,
2010-01-01 22:50:00,31.5,23.9,29.80,NNE,17,0.0,6.0,73,0.00,,---,0.28,VWS V14.00,2010-01-02 03:50:00,
2010-01-01 22:55:00,31.4,23.8,29.80,NW,309,0.0,6.0,73,0.00,,---,0.28,VWS V14.00,2010-01-02 03:55:00,
2010-01-01 23:00:00,31.4,24.1,29.80,NW,315,2.0,6.0,74,0.00,,---,0.28,VWS V14.00,2010-01-02 04:00:00,
2010-01-01 23:05:00,31.3,23.7,29.79,North,360,0.0,5.0,73,0.00,,---,0.28,VWS V14.00,2010-01-02 04:05:00,
2010-01-01 23:10:00,31.3,23.3,29.79,NW,315,1.0,5.0,72,0.00,,---,0.28,VWS V14.00,2010-01-02 04:10:00,
2010-01-01 23:15:00,31.2,22.9,29.79,NNE,20,0.0,5.0,71,0.00,,---,0.28,VWS V14.00,2010-01-02 04:15:00,
2010-01-01 23:20:00,31.2,22.9,29.79,NNW,327,0.0,5.0,71,0.00,,---,0.28,VWS V14.00,2010-01-02 04:20:00,
2010-01-01 23:25:00,31.1,22.8,29.79,NW,316,0.0,5.0,71,0.00,,---,0.28,VWS V14.00,2010-01-02 04:25:00,
2010-01-01 23:30:00,31.0,22.4,29.79,West,259,5.0,10.0,70,0.00,,---,0.28,VWS V14.00,2010-01-02 04:30:00,
2010-01-01 23:35:00,30.9,21.2,29.79,WSW,242,5.0,9.0,67,0.00,,---,0.28,VWS V14.00,2010-01-02 04:35:00,
2010-01-01 23:40:00,30.9,21.2,29.78,NW,317,0.0,9.0,67,0.00,,---,0.28,VWS V14.00,2010-01-02 04:40:00,
2010-01-01 23:45:00,30.8,21.1,29.78,NW,304,2.0,9.0,67,0.00,,---,0.28,VWS V14.00,2010-01-02 04:45:00,
2010-01-01 23:50:00,30.7,21.1,29.78,WNW,283,1.0,7.0,67,0.00,,---,0.28,VWS V14.00,2010-01-02 04:50:00,
2010-01-01 23:55:00,30.7,20.3,29.78,NW,311,2.0,11.0,65,0.00,,---,0.28,VWS V14.00,2010-01-02 04:55:00,